Time;durP1;ratioP1;P1;durP2;ratioP2;P2;SDS_P1;SDS_P2;PMS_P1;PMS_P2;Temp;Humidity;BMP_temperature;BMP_pressure;BME280_temperature;BME280_humidity;BME280_pressure;Samples;Min_cycle;Max_cycle;Signal;HPM_P1;HPM_P2
2023/02/02 00:01:38;;;;;;;6.15;2.40;;;;;;;6.32;53.72;99926.81;4996297;28;20060;-61
2023/02/02 00:04:04;;;;;;;2.00;1.70;;;;;;;6.21;54.16;99937.38;4997430;28;20120;-62
2023/02/02 00:06:30;;;;;;;4.13;2.40;;;;;;;5.70;55.05;99937.28;4988526;28;20371;-62
2023/02/02 00:08:58;;;;;;;5.40;2.30;;;;;;;5.79;55.37;99939.13;4984841;28;20271;-63
2023/02/02 00:11:24;;;;;;;3.38;2.33;;;;;;;5.87;55.45;99941.13;4984497;28;20038;-63
2023/02/02 00:13:49;;;;;;;3.42;1.65;;;;;;;5.69;55.91;99944.31;4983967;28;20038;-61
2023/02/02 00:16:27;;;;;;;3.70;1.95;;;;;;;5.66;57.05;99941.09;4984000;28;20342;-61
2023/02/02 00:19:01;;;;;;;2.78;1.92;;;;;;;5.54;57.50;99937.69;4985055;28;20041;-62
2023/02/02 00:21:27;;;;;;;2.92;1.77;;;;;;;5.39;58.18;99945.03;4984348;28;20049;-64
2023/02/02 00:23:52;;;;;;;3.78;2.15;;;;;;;5.28;58.46;99942.44;4984216;28;20046;-61
2023/02/02 00:26:18;;;;;;;3.05;1.90;;;;;;;5.26;58.91;99957.47;4984116;28;20096;-62
2023/02/02 00:28:44;;;;;;;3.22;1.80;;;;;;;5.36;58.62;99945.28;4983582;28;20109;-61
2023/02/02 00:31:09;;;;;;;3.30;2.28;;;;;;;5.39;58.50;99946.81;4992162;28;20042;-64
2023/02/02 00:33:34;;;;;;;4.40;1.90;;;;;;;5.35;59.05;99943.59;4995852;28;20046;-64
2023/02/02 00:36:00;;;;;;;2.63;1.80;;;;;;;5.43;58.71;99940.34;4996214;28;20198;-62
2023/02/02 00:38:25;;;;;;;3.63;2.55;;;;;;;5.36;59.04;99947.06;4996690;28;20123;-62
2023/02/02 00:40:51;;;;;;;6.88;3.20;;;;;;;5.37;58.69;99954.00;4995092;28;20030;-62
2023/02/02 00:43:16;;;;;;;3.95;2.47;;;;;;;5.39;58.43;99947.66;4996704;28;20073;-63
2023/02/02 00:45:42;;;;;;;3.60;2.38;;;;;;;5.40;58.77;99964.25;4994475;28;20037;-64
2023/02/02 00:48:09;;;;;;;6.53;3.15;;;;;;;5.48;58.82;99950.50;4996337;28;20052;-61
2023/02/02 00:50:35;;;;;;;4.15;2.05;;;;;;;5.59;58.88;99945.19;4997550;28;20026;-62
2023/02/02 00:53:01;;;;;;;5.57;2.28;;;;;;;5.39;59.27;99941.56;4994612;28;20400;-62
2023/02/02 00:55:26;;;;;;;7.00;3.45;;;;;;;5.73;58.83;99953.63;4995780;28;20042;-64
2023/02/02 00:57:52;;;;;;;8.20;3.45;;;;;;;5.90;57.69;99948.78;4995429;28;20034;-61
2023/02/02 01:00:22;;;;;;;7.47;3.50;;;;;;;5.89;57.54;99952.34;4996217;28;20114;-63
2023/02/02 01:02:51;;;;;;;4.28;2.70;;;;;;;5.92;57.31;99944.25;4993265;28;20110;-62
2023/02/02 01:05:17;;;;;;;6.95;3.47;;;;;;;5.95;57.34;99931.69;4994262;28;20327;-63
2023/02/02 01:07:43;;;;;;;5.45;3.17;;;;;;;6.06;56.59;99939.50;4994633;28;20034;-63
2023/02/02 01:10:13;;;;;;;7.72;3.30;;;;;;;6.16;57.04;99934.31;4995185;28;20057;-62
2023/02/02 01:12:39;;;;;;;6.32;3.70;;;;;;;6.23;55.82;99935.44;4995690;28;20031;-62
2023/02/02 01:15:05;;;;;;;5.35;2.90;;;;;;;6.21;56.15;99944.44;4995581;28;20240;-62
2023/02/02 01:17:31;;;;;;;9.57;4.85;;;;;;;6.29;56.23;99950.75;4993842;28;20046;-64
2023/02/02 01:19:56;;;;;;;8.95;3.72;;;;;;;6.35;56.18;99949.38;4995390;28;20035;-64
2023/02/02 01:22:21;;;;;;;5.13;3.13;;;;;;;6.35;56.39;99947.59;4995708;28;20034;-62
2023/02/02 01:24:47;;;;;;;4.10;2.60;;;;;;;6.27;56.74;99955.31;4994700;28;20352;-62
2023/02/02 01:27:12;;;;;;;3.45;2.10;;;;;;;6.25;55.91;99951.97;4995241;28;20114;-64
2023/02/02 01:29:38;;;;;;;3.80;2.60;;;;;;;6.19;56.17;99955.06;4995263;28;20042;-65
2023/02/02 01:32:03;;;;;;;4.65;2.47;;;;;;;6.11;55.79;99952.25;4994348;28;20044;-62
2023/02/02 01:34:29;;;;;;;4.60;2.33;;;;;;;6.07;55.04;99959.56;4995489;28;20137;-62
2023/02/02 01:36:54;;;;;;;6.13;3.05;;;;;;;6.13;55.15;99958.22;4994908;28;20026;-63
2023/02/02 01:39:20;;;;;;;3.33;2.42;;;;;;;6.23;54.79;99956.50;4996191;28;20760;-64
2023/02/02 01:41:45;;;;;;;5.57;2.58;;;;;;;6.31;54.31;99956.72;4994889;28;20068;-62
2023/02/02 01:44:48;;;;;;;6.25;2.30;;;;;;;6.32;54.27;99953.13;4995484;28;20269;-62
2023/02/02 01:47:14;;;;;;;5.95;2.65;;;;;;;6.24;54.42;99950.28;4992896;28;20034;-62
2023/02/02 01:49:40;;;;;;;5.03;2.17;;;;;;;6.20;54.25;99945.41;4994758;28;20048;-62
2023/02/02 01:52:08;;;;;;;6.32;2.97;;;;;;;6.29;54.52;99947.28;4994769;28;20034;-64
2023/02/02 01:54:39;;;;;;;6.07;2.78;;;;;;;6.35;54.77;99939.69;4995515;28;20328;-64
2023/02/02 01:57:14;;;;;;;5.57;2.85;;;;;;;6.45;54.56;99942.38;4995282;28;20033;-62
2023/02/02 01:59:41;;;;;;;7.50;3.05;;;;;;;6.50;53.77;99942.00;4994203;28;20426;-62
2023/02/02 02:02:07;;;;;;;5.53;3.33;;;;;;;6.51;54.39;99946.28;4992202;28;20042;-64
2023/02/02 02:04:33;;;;;;;6.47;3.38;;;;;;;6.55;53.83;99940.63;4994431;28;20034;-64
2023/02/02 02:07:00;;;;;;;8.43;3.60;;;;;;;6.56;54.74;99949.34;4994947;28;20030;-62
2023/02/02 02:09:25;;;;;;;5.05;3.50;;;;;;;6.54;54.60;99948.66;4994959;28;20229;-61
2023/02/02 02:11:52;;;;;;;7.07;3.88;;;;;;;6.56;54.76;99946.72;4994668;28;20038;-62
2023/02/02 02:17:09;;;;;;;;;;;;;;;6.72;53.84;99955.81;4996547;28;20040;-63
2023/02/02 02:26:33;;;;;;;4.03;2.80;;;;;;;6.58;55.06;99950.88;4994436;28;20073;-61
2023/02/02 02:29:15;;;;;;;7.00;3.33;;;;;;;6.51;54.97;99944.50;4994174;28;20038;-62
2023/02/02 02:32:08;;;;;;;10.20;4.72;;;;;;;6.41;55.90;99948.88;4993524;28;20050;-63
2023/02/02 02:34:43;;;;;;;9.53;3.43;;;;;;;6.44;55.49;99950.41;4993092;28;20058;-63
2023/02/02 02:37:17;;;;;;;5.40;3.00;;;;;;;6.41;55.77;99943.59;4994964;28;20072;-62
2023/02/02 02:40:00;;;;;;;6.07;3.70;;;;;;;6.32;55.40;99944.38;4994012;28;20050;-62
2023/02/02 02:42:30;;;;;;;3.30;3.00;;;;;;;6.38;54.84;99943.88;4993852;28;20073;-63
2023/02/02 02:45:00;;;;;;;7.00;3.78;;;;;;;6.35;54.83;99947.59;4992199;28;20046;-64
2023/02/02 02:47:29;;;;;;;5.07;2.92;;;;;;;6.36;54.86;99949.25;4992223;28;20046;-62
2023/02/02 02:49:54;;;;;;;4.38;3.50;;;;;;;6.45;55.41;99947.66;4993452;28;20049;-63
2023/02/02 02:52:19;;;;;;;5.53;3.28;;;;;;;6.44;54.82;99940.72;4994790;28;20202;-62
2023/02/02 02:54:51;;;;;;;4.82;2.60;;;;;;;6.38;55.20;99938.59;4994718;28;20049;-64
2023/02/02 02:57:58;;;;;;;4.82;2.58;;;;;;;6.33;55.20;99938.16;4993864;28;20130;-64
2023/02/02 03:00:47;;;;;;;3.15;2.40;;;;;;;6.24;55.84;99933.66;4934830;29;20091;-62
2023/02/02 03:03:44;;;;;;;3.97;2.65;;;;;;;6.31;55.31;99930.41;4931259;29;20066;-62
2023/02/02 03:06:13;;;;;;;3.38;2.08;;;;;;;6.33;55.61;99932.91;4987659;28;20049;-62
2023/02/02 03:08:46;;;;;;;2.97;1.90;;;;;;;6.33;55.99;99928.47;4997289;28;20050;-63
2023/02/02 03:11:14;;;;;;;2.83;2.40;;;;;;;6.31;55.80;99930.41;4997825;28;20057;-62
2023/02/02 03:13:41;;;;;;;3.17;2.20;;;;;;;6.27;55.57;99936.06;4997209;28;20434;-62
2023/02/02 03:16:07;;;;;;;3.58;2.47;;;;;;;6.26;55.72;99937.03;4998565;28;20034;-61
2023/02/02 03:18:33;;;;;;;7.40;3.38;;;;;;;6.34;55.52;99940.66;4998910;28;20045;-63
2023/02/02 03:20:59;;;;;;;5.20;2.70;;;;;;;6.37;55.12;99939.56;5001283;28;20030;-63
2023/02/02 03:23:25;;;;;;;3.83;2.38;;;;;;;6.40;55.06;99941.94;5001078;28;20290;-62
2023/02/02 03:25:50;;;;;;;8.57;4.78;;;;;;;6.38;55.72;99941.25;5001022;28;20290;-62
2023/02/02 03:28:17;;;;;;;5.88;3.85;;;;;;;6.45;55.31;99945.00;5000880;28;20069;-62
2023/02/02 03:30:45;;;;;;;5.70;3.83;;;;;;;6.52;55.63;99937.44;5000553;28;20049;-64
2023/02/02 03:33:13;;;;;;;4.53;2.60;;;;;;;6.61;55.16;99928.75;5001192;28;20037;-64
2023/02/02 03:35:38;;;;;;;4.65;2.50;;;;;;;6.65;54.87;99928.34;5001075;28;20046;-62
2023/02/02 03:38:04;;;;;;;4.75;2.30;;;;;;;6.66;54.58;99926.56;4999838;28;20049;-61
2023/02/02 03:40:29;;;;;;;2.67;2.03;;;;;;;6.59;54.22;99928.88;5000659;28;20257;-62
2023/02/02 03:42:55;;;;;;;4.38;2.10;;;;;;;6.54;54.85;99924.97;5000427;28;20038;-62
2023/02/02 03:45:21;;;;;;;3.13;1.95;;;;;;;6.40;54.56;99919.09;5000129;28;20046;-64
2023/02/02 03:47:46;;;;;;;3.45;1.60;;;;;;;6.36;55.31;99922.13;4999889;28;20380;-62
2023/02/02 03:50:12;;;;;;;4.22;1.55;;;;;;;6.29;55.63;99916.56;4999802;28;20038;-61
2023/02/02 03:52:37;;;;;;;4.90;1.95;;;;;;;6.19;55.56;99913.00;5000467;28;20256;-63
2023/02/02 03:55:04;;;;;;;3.90;1.70;;;;;;;6.26;56.09;99919.44;5000347;28;20051;-62
2023/02/02 03:57:29;;;;;;;3.58;2.00;;;;;;;6.33;56.34;99910.06;4999905;28;20061;-62
2023/02/02 03:59:55;;;;;;;1.65;1.33;;;;;;;6.30;56.24;99914.75;5000782;28;20057;-62
2023/02/02 04:02:20;;;;;;;3.58;1.55;;;;;;;6.29;55.87;99915.72;5000664;28;20295;-64
2023/02/02 04:04:46;;;;;;;2.83;1.17;;;;;;;6.27;55.59;99909.75;5000854;28;20441;-62
2023/02/02 04:07:12;;;;;;;3.30;1.50;;;;;;;6.12;56.57;99911.88;5000718;28;20026;-62
2023/02/02 04:09:38;;;;;;;8.63;2.88;;;;;;;6.10;56.68;99908.53;5000326;28;20034;-62
2023/02/02 04:12:03;;;;;;;6.22;2.20;;;;;;;6.04;56.44;99917.78;4998827;28;20040;-63
2023/02/02 04:14:29;;;;;;;3.75;1.70;;;;;;;5.91;57.45;99906.63;4995088;28;20289;-65
2023/02/02 04:16:54;;;;;;;2.60;1.52;;;;;;;5.94;57.67;99914.25;4995473;28;20049;-62
2023/02/02 04:19:19;;;;;;;1.17;1.02;;;;;;;5.98;57.22;99920.06;4992863;28;20050;-62
2023/02/02 04:21:45;;;;;;;3.63;1.60;;;;;;;6.02;57.43;99919.69;4994206;28;20032;-63
2023/02/02 04:24:12;;;;;;;2.47;1.38;;;;;;;6.05;57.17;99919.44;4995999;28;20334;-64
2023/02/02 04:26:37;;;;;;;1.30;1.20;;;;;;;6.11;57.25;99912.00;4993086;28;20093;-63
2023/02/02 04:29:03;;;;;;;1.75;1.45;;;;;;;6.05;57.14;99916.81;4996064;28;20073;-62
2023/02/02 04:31:28;;;;;;;3.50;2.10;;;;;;;6.07;57.37;99914.88;4995358;28;20380;-63
2023/02/02 04:33:58;;;;;;;2.40;1.35;;;;;;;6.05;57.82;99918.59;4994673;28;20046;-65
2023/02/02 04:36:23;;;;;;;4.25;2.28;;;;;;;5.99;57.16;99913.84;4995148;28;20057;-64
2023/02/02 04:38:50;;;;;;;4.65;2.40;;;;;;;5.93;57.54;99915.22;4994670;28;20285;-63
2023/02/02 04:41:17;;;;;;;4.80;1.80;;;;;;;5.84;57.97;99920.38;4995601;28;20038;-62
2023/02/02 04:43:43;;;;;;;2.50;1.95;;;;;;;5.71;58.20;99926.63;4992776;28;20316;-64
2023/02/02 04:46:09;;;;;;;2.58;1.70;;;;;;;5.66;58.49;99918.31;4995048;28;20286;-63
2023/02/02 04:48:34;;;;;;;5.15;1.40;;;;;;;5.63;58.54;99920.34;4993442;28;20038;-62
2023/02/02 04:51:02;;;;;;;2.40;1.45;;;;;;;5.58;59.10;99923.34;4994993;28;20053;-62
2023/02/02 04:53:28;;;;;;;3.28;1.80;;;;;;;5.52;59.05;99930.91;4995392;28;20030;-62
2023/02/02 04:55:54;;;;;;;3.53;2.20;;;;;;;5.49;59.71;99933.78;4993445;28;20402;-64
2023/02/02 04:58:19;;;;;;;3.10;1.77;;;;;;;5.41;59.69;99935.22;4995795;28;20038;-64
2023/02/02 05:00:45;;;;;;;2.05;1.45;;;;;;;5.32;60.48;99932.53;4995091;28;20488;-62
2023/02/02 05:03:10;;;;;;;1.77;1.58;;;;;;;5.33;59.87;99936.81;4994197;28;20064;-63
2023/02/02 05:05:36;;;;;;;4.93;2.38;;;;;;;5.34;59.88;99938.47;4994370;28;20367;-64
2023/02/02 05:08:01;;;;;;;2.97;1.92;;;;;;;5.30;60.16;99947.56;4995201;28;20110;-64
2023/02/02 05:10:27;;;;;;;3.05;2.10;;;;;;;5.30;60.45;99948.41;4994126;28;20379;-62
2023/02/02 05:12:53;;;;;;;2.22;1.73;;;;;;;5.30;60.80;99951.03;4994049;28;20350;-62
2023/02/02 05:15:20;;;;;;;3.20;1.73;;;;;;;5.26;60.27;99951.38;4992393;28;20034;-63
2023/02/02 05:17:46;;;;;;;4.18;2.00;;;;;;;5.23;61.04;99955.09;4992924;28;20030;-64
2023/02/02 05:20:11;;;;;;;3.13;1.90;;;;;;;5.18;60.56;99956.38;4995237;28;20651;-64
2023/02/02 05:22:37;;;;;;;2.67;1.65;;;;;;;5.19;60.70;99964.16;4993322;28;20264;-62
2023/02/02 05:25:03;;;;;;;2.75;1.60;;;;;;;5.21;60.64;99966.69;4995370;28;20041;-62
2023/02/02 05:27:29;;;;;;;7.10;1.92;;;;;;;5.27;60.43;99968.81;4993156;28;20104;-64
2023/02/02 05:29:54;;;;;;;4.20;1.75;;;;;;;5.35;60.01;99972.50;4994545;28;20662;-64
2023/02/02 05:32:20;;;;;;;5.68;2.10;;;;;;;5.42;60.43;99970.22;4993868;28;20030;-62
2023/02/02 05:34:45;;;;;;;3.22;2.03;;;;;;;5.44;59.38;99974.38;4993793;28;20101;-62
2023/02/02 05:37:11;;;;;;;8.32;3.30;;;;;;;5.36;59.56;99966.28;4993390;28;20038;-62
2023/02/02 05:39:36;;;;;;;6.78;2.67;;;;;;;5.41;59.53;99972.00;4994713;28;20292;-64
2023/02/02 05:42:01;;;;;;;6.13;2.03;;;;;;;5.44;59.69;99978.78;4993743;28;20343;-64
2023/02/02 05:44:27;;;;;;;6.25;2.00;;;;;;;5.42;59.46;99976.28;4994773;28;20065;-63
2023/02/02 05:46:52;;;;;;;5.82;2.20;;;;;;;5.47;59.22;99980.34;4991592;28;20060;-62
2023/02/02 05:49:18;;;;;;;6.20;2.08;;;;;;;5.61;59.46;99985.31;4994943;28;20232;-65
2023/02/02 05:51:48;;;;;;;5.50;2.10;;;;;;;5.68;58.75;99987.31;4993647;28;20045;-64
2023/02/02 05:54:18;;;;;;;4.72;2.22;;;;;;;5.70;58.61;99989.81;4993284;28;20046;-63
2023/02/02 05:56:44;;;;;;;2.92;1.70;;;;;;;5.73;58.70;99987.78;4994404;28;20031;-63
2023/02/02 05:59:09;;;;;;;5.13;2.03;;;;;;;5.71;58.54;99981.81;4993542;28;20423;-63
2023/02/02 06:01:35;;;;;;;4.90;1.90;;;;;;;5.80;59.11;99984.66;4993600;28;20088;-64
2023/02/02 06:04:00;;;;;;;5.53;2.20;;;;;;;5.87;58.49;99988.44;4993923;28;20050;-61
2023/02/02 06:06:26;;;;;;;4.22;3.42;;;;;;;5.90;57.73;99990.84;4987021;28;20030;-62
2023/02/02 06:08:51;;;;;;;10.88;4.35;;;;;;;5.93;57.56;99982.72;4981622;28;20042;-62
2023/02/02 06:11:18;;;;;;;11.23;4.72;;;;;;;5.80;58.74;99982.84;4979845;28;20101;-64
2023/02/02 06:13:43;;;;;;;12.60;5.07;;;;;;;5.83;58.39;99984.41;4979464;28;20037;-62
2023/02/02 06:16:09;;;;;;;11.27;6.85;;;;;;;5.86;59.11;99992.84;4986269;28;20125;-62
2023/02/02 06:18:35;;;;;;;9.05;5.43;;;;;;;5.89;58.99;99990.00;4998121;28;20061;-62
2023/02/02 06:21:04;;;;;;;7.65;3.97;;;;;;;5.82;58.86;99987.97;4997756;28;20030;-62
2023/02/02 06:23:31;;;;;;;7.93;4.28;;;;;;;5.85;59.56;99991.19;4997333;28;20034;-64
2023/02/02 06:25:57;;;;;;;15.70;5.82;;;;;;;5.87;59.15;99998.94;4997643;28;20045;-64
2023/02/02 06:28:22;;;;;;;7.28;4.00;;;;;;;5.90;58.87;100001.34;4998397;28;20034;-62
2023/02/02 06:30:48;;;;;;;9.10;4.72;;;;;;;5.91;59.24;100003.03;4985143;28;20045;-62
2023/02/02 06:33:13;;;;;;;9.35;5.40;;;;;;;5.93;58.98;100011.63;4991521;28;20116;-62
2023/02/02 06:35:39;;;;;;;6.85;3.63;;;;;;;5.94;59.17;100006.22;4993350;28;20026;-62
2023/02/02 06:38:04;;;;;;;6.47;3.75;;;;;;;5.89;59.03;100011.03;4992775;28;20044;-62
2023/02/02 06:40:29;;;;;;;8.13;4.57;;;;;;;5.92;58.79;100017.84;4993122;28;20050;-65
2023/02/02 06:43:01;;;;;;;6.82;3.90;;;;;;;5.97;59.39;100019.13;4994394;28;20038;-62
2023/02/02 06:45:27;;;;;;;8.13;4.07;;;;;;;6.01;59.28;100017.91;4997735;28;20041;-62
2023/02/02 06:47:53;;;;;;;7.18;4.05;;;;;;;6.09;59.35;100012.84;4997390;28;20034;-62
2023/02/02 06:50:19;;;;;;;6.75;4.50;;;;;;;6.28;58.36;100008.72;4997009;28;20039;-62
2023/02/02 06:52:51;;;;;;;7.40;4.72;;;;;;;6.47;58.05;100008.00;4996637;28;20061;-65
2023/02/02 06:55:17;;;;;;;9.18;4.50;;;;;;;6.68;57.21;100008.81;4997023;28;20374;-62
2023/02/02 06:57:43;;;;;;;8.93;5.32;;;;;;;6.83;56.91;100017.22;5007051;28;20038;-62
2023/02/02 07:00:09;;;;;;;12.20;6.18;;;;;;;7.07;56.71;100011.63;4995053;28;20042;-62
2023/02/02 07:02:34;;;;;;;11.80;5.13;;;;;;;7.23;55.80;100009.31;4994725;28;20055;-64
2023/02/02 07:05:00;;;;;;;10.90;4.57;;;;;;;7.29;55.35;100012.28;4995585;28;20042;-63
2023/02/02 07:07:26;;;;;;;9.00;4.50;;;;;;;7.36;55.36;100016.03;4995029;28;20030;-62
2023/02/02 07:09:51;;;;;;;7.82;4.30;;;;;;;7.40;55.25;100016.59;4995122;28;20057;-63
2023/02/02 07:12:18;;;;;;;7.85;3.80;;;;;;;7.54;54.63;100018.84;4994401;28;20034;-65
2023/02/02 07:14:44;;;;;;;9.18;4.35;;;;;;;7.64;54.25;100019.72;4996425;28;20406;-63
2023/02/02 07:17:09;;;;;;;10.65;5.82;;;;;;;7.76;54.35;100027.50;4996907;28;20081;-63
2023/02/02 07:19:35;;;;;;;9.73;4.00;;;;;;;7.91;53.55;100016.41;4996517;28;20042;-63
2023/02/02 07:22:00;;;;;;;5.43;4.15;;;;;;;8.07;53.60;100010.56;4996802;28;20050;-65
2023/02/02 07:24:26;;;;;;;9.57;4.55;;;;;;;8.10;53.40;100015.56;4996686;28;20355;-64
2023/02/02 07:26:52;;;;;;;12.55;5.90;;;;;;;7.97;53.38;100015.84;4996676;28;20096;-63
2023/02/02 07:29:17;;;;;;;7.05;4.00;;;;;;;8.03;52.81;100022.38;4996810;28;20042;-62
2023/02/02 07:31:43;;;;;;;7.70;3.85;;;;;;;8.11;53.46;100024.31;5006335;28;20052;-62
2023/02/02 07:34:08;;;;;;;5.88;3.05;;;;;;;8.24;52.70;100030.97;4998423;28;20256;-62
2023/02/02 07:36:34;;;;;;;4.93;3.08;;;;;;;8.45;52.67;100030.03;4996718;28;20034;-64
2023/02/02 07:39:03;;;;;;;3.05;2.58;;;;;;;8.51;52.46;100035.56;4995481;28;20388;-63
2023/02/02 07:41:28;;;;;;;7.68;3.17;;;;;;;8.67;52.34;100032.34;4996590;28;20034;-63
2023/02/02 07:43:54;;;;;;;3.97;2.40;;;;;;;8.87;52.31;100033.13;4996340;28;20256;-63
2023/02/02 07:46:19;;;;;;;5.80;2.63;;;;;;;8.99;51.75;100041.69;4996887;28;20053;-62
2023/02/02 07:48:45;;;;;;;4.00;2.60;;;;;;;9.01;51.13;100034.47;4996581;28;20042;-64
2023/02/02 07:51:16;;;;;;;5.68;2.70;;;;;;;9.17;51.36;100035.50;4997596;28;20261;-64
2023/02/02 07:53:46;;;;;;;4.20;2.35;;;;;;;9.19;50.40;100035.34;5000019;28;20047;-63
2023/02/02 07:56:23;;;;;;;4.20;2.65;;;;;;;9.36;51.18;100033.75;4997074;28;20201;-63
2023/02/02 07:58:51;;;;;;;7.97;3.67;;;;;;;9.34;51.03;100020.69;4991854;28;20034;-63
2023/02/02 08:01:18;;;;;;;3.28;1.90;;;;;;;9.45;51.16;100022.31;4994893;28;20042;-62
2023/02/02 08:03:44;;;;;;;6.78;2.85;;;;;;;9.46;51.30;100016.88;4994237;28;20085;-62
2023/02/02 08:06:30;;;;;;;6.78;2.00;;;;;;;9.46;49.64;100024.81;4999207;28;20034;-63
2023/02/02 08:08:57;;;;;;;4.47;2.50;;;;;;;9.16;49.13;100027.72;4998842;28;20042;-64
2023/02/02 08:11:24;;;;;;;6.88;2.05;;;;;;;9.18;48.73;100021.31;4999730;28;20224;-62
2023/02/02 08:13:52;;;;;;;3.97;2.20;;;;;;;9.14;49.16;100029.69;4999736;28;20069;-62
2023/02/02 08:16:18;;;;;;;6.70;2.80;;;;;;;9.13;49.59;100022.72;4999709;28;20053;-62
2023/02/02 08:18:44;;;;;;;4.15;2.90;;;;;;;9.10;49.53;100015.09;4999592;28;20069;-62
2023/02/02 08:21:10;;;;;;;4.50;2.92;;;;;;;9.06;49.89;100024.28;4999261;28;20092;-66
2023/02/02 08:23:37;;;;;;;7.40;3.25;;;;;;;9.24;50.06;100019.91;5000542;28;20049;-62
2023/02/02 08:26:10;;;;;;;5.65;3.60;;;;;;;9.33;49.61;100012.91;4999283;28;20048;-61
2023/02/02 08:28:37;;;;;;;7.05;3.83;;;;;;;9.34;49.36;100009.28;5000013;28;20034;-62
2023/02/02 08:31:05;;;;;;;3.92;2.88;;;;;;;9.32;49.20;100005.94;5001852;28;20348;-62
2023/02/02 08:33:31;;;;;;;7.03;4.07;;;;;;;9.50;49.32;100009.50;4999122;28;20061;-62
2023/02/02 08:35:56;;;;;;;6.40;3.65;;;;;;;9.65;49.08;100004.53;4999127;28;20076;-62
2023/02/02 08:38:23;;;;;;;5.15;2.72;;;;;;;9.83;48.92;100000.91;4999257;28;20038;-62
2023/02/02 08:40:48;;;;;;;5.40;3.05;;;;;;;10.00;47.73;100004.53;4998902;28;20038;-62
2023/02/02 08:43:13;;;;;;;6.93;3.45;;;;;;;10.05;47.15;99990.84;4999429;28;20240;-63
2023/02/02 08:45:42;;;;;;;5.38;2.60;;;;;;;10.14;47.01;99985.47;4999077;28;20349;-62
2023/02/02 08:48:07;;;;;;;6.30;3.00;;;;;;;10.19;45.88;99990.31;4999275;28;20042;-63
2023/02/02 08:50:32;;;;;;;9.20;4.68;;;;;;;10.29;46.41;99988.44;4998812;28;20359;-62
2023/02/02 08:52:58;;;;;;;7.57;4.63;;;;;;;10.35;46.59;99987.81;4999313;28;20346;-63
2023/02/02 08:55:23;;;;;;;8.20;4.82;;;;;;;10.32;45.79;99976.69;4998617;28;20056;-64
2023/02/02 08:57:49;;;;;;;4.60;2.35;;;;;;;10.37;45.95;99983.19;4993520;28;20026;-64
2023/02/02 09:00:15;;;;;;;4.38;3.25;;;;;;;10.49;46.82;99983.78;4994630;28;20046;-61
2023/02/02 09:02:40;;;;;;;7.93;4.75;;;;;;;10.55;46.25;99985.81;4991800;28;20105;-63
2023/02/02 09:05:06;;;;;;;8.65;4.18;;;;;;;10.65;46.52;99983.91;4994781;28;20221;-62
2023/02/02 09:07:32;;;;;;;6.25;3.58;;;;;;;10.76;45.12;99980.97;4993731;28;20101;-63
2023/02/02 09:09:57;;;;;;;7.93;2.65;;;;;;;10.67;43.08;99981.91;4994045;28;20113;-63
2023/02/02 09:12:23;;;;;;;4.50;2.45;;;;;;;10.67;42.89;99979.28;4992061;28;20030;-63
2023/02/02 09:14:49;;;;;;;5.68;2.72;;;;;;;10.79;43.14;99974.53;4994017;28;20157;-65
2023/02/02 09:17:14;;;;;;;6.25;3.70;;;;;;;10.87;43.30;99972.75;4995371;28;20339;-63
2023/02/02 09:19:40;;;;;;;8.65;4.30;;;;;;;10.98;43.46;99976.13;4993679;28;20045;-63
2023/02/02 09:22:05;;;;;;;3.53;2.38;;;;;;;10.98;42.36;99966.34;4993743;28;20050;-64
2023/02/02 09:24:31;;;;;;;3.15;2.28;;;;;;;11.01;41.51;99965.19;4993745;28;20045;-63
2023/02/02 09:26:56;;;;;;;4.30;2.30;;;;;;;11.06;42.42;99957.59;4992218;28;20038;-63
2023/02/02 09:29:21;;;;;;;4.30;2.65;;;;;;;11.11;42.75;99958.78;4994665;28;20220;-64
2023/02/02 09:31:47;;;;;;;4.97;2.00;;;;;;;11.09;42.74;99946.69;4994446;28;20092;-63
2023/02/02 09:34:14;;;;;;;4.35;2.50;;;;;;;11.18;43.24;99937.78;4994926;28;20261;-62
2023/02/02 09:36:40;;;;;;;4.05;2.08;;;;;;;11.23;43.02;99937.28;4994399;28;20050;-63
2023/02/02 09:39:07;;;;;;;4.72;2.30;;;;;;;11.22;42.80;99925.84;4994271;28;20340;-65
2023/02/02 09:41:57;;;;;;;4.57;2.75;;;;;;;11.34;43.49;99921.91;4994111;28;20312;-63
2023/02/02 09:44:41;;;;;;;5.70;2.60;;;;;;;11.45;42.30;99920.78;4992119;28;20355;-64
2023/02/02 09:47:12;;;;;;;7.13;2.58;;;;;;;11.47;41.25;99911.69;4990783;28;20081;-63
2023/02/02 09:49:41;;;;;;;4.20;2.55;;;;;;;11.45;42.38;99908.38;4997853;28;20038;-63
2023/02/02 09:52:15;;;;;;;3.40;2.30;;;;;;;11.38;40.53;99909.97;4998195;28;20268;-63
2023/02/02 09:54:44;;;;;;;6.53;3.67;;;;;;;11.45;40.18;99904.88;4998906;28;20065;-63
2023/02/02 09:57:22;;;;;;;16.75;9.73;;;;;;;11.44;40.01;99908.50;4996612;28;20038;-63
2023/02/02 09:59:50;;;;;;;6.07;3.65;;;;;;;11.42;40.86;99902.53;4996656;28;20366;-63
2023/02/02 10:02:41;;;;;;;5.93;3.08;;;;;;;11.42;40.41;99884.78;4997002;28;20363;-63
2023/02/02 10:05:14;;;;;;;4.60;2.65;;;;;;;11.33;40.22;99879.66;4994428;28;20057;-64
2023/02/02 10:07:44;;;;;;;4.90;2.38;;;;;;;11.44;41.02;99874.88;4997271;28;20030;-64
2023/02/02 10:10:27;;;;;;;4.22;2.33;;;;;;;11.54;41.51;99869.44;4997215;28;20053;-63
2023/02/02 10:13:10;;;;;;;5.10;2.70;;;;;;;11.57;39.86;99852.34;4997133;28;20212;-63
2023/02/02 10:15:49;;;;;;;4.05;2.47;;;;;;;11.65;40.23;99852.34;4997902;28;20081;-63
2023/02/02 10:18:35;;;;;;;3.85;2.10;;;;;;;11.60;38.74;99849.38;4996988;28;20080;-63
2023/02/02 10:21:10;;;;;;;2.92;1.70;;;;;;;11.57;38.04;99847.88;4997578;28;20037;-62
2023/02/02 10:23:38;;;;;;;4.10;1.77;;;;;;;11.65;39.64;99845.22;4997540;28;20050;-62
2023/02/02 10:26:13;;;;;;;5.05;2.75;;;;;;;11.73;40.23;99847.88;4996132;28;20110;-62
2023/02/02 10:28:41;;;;;;;5.30;1.70;;;;;;;11.74;37.90;99846.06;4997406;28;20209;-62
2023/02/02 10:31:20;;;;;;;2.30;1.30;;;;;;;11.76;37.49;99841.41;4997760;28;20057;-62
2023/02/02 10:34:13;;;;;;;2.83;1.38;;;;;;;11.80;37.84;99835.63;4995908;28;20097;-64
2023/02/02 10:37:12;;;;;;;2.70;1.50;;;;;;;11.77;37.75;99832.44;4997451;28;20630;-62
2023/02/02 10:39:49;;;;;;;4.53;1.90;;;;;;;11.79;37.19;99833.97;4996438;28;20065;-62
2023/02/02 10:43:44;;;;;;;2.25;1.60;;;;;;;11.88;38.00;99832.13;4996492;28;20066;-62
2023/02/02 10:45:32;;;;;;;5.57;3.38;;;;;;;11.97;37.09;99828.47;4972533;28;20113;-62
2023/02/02 10:47:58;;;;;;;2.42;1.35;;;;;;;11.94;35.92;99818.19;4996984;28;20248;-62
2023/02/02 10:50:24;;;;;;;2.30;1.55;;;;;;;11.95;36.35;99819.84;4997791;28;20045;-62
2023/02/02 10:53:02;;;;;;;3.17;1.70;;;;;;;11.80;36.44;99809.09;4996907;28;20065;-64
2023/02/02 10:55:40;;;;;;;2.00;1.15;;;;;;;11.96;37.53;99812.72;4998343;28;20057;-62
2023/02/02 10:58:11;;;;;;;1.55;1.33;;;;;;;12.12;37.45;99808.19;4996968;28;20038;-62
2023/02/02 11:00:52;;;;;;;4.05;1.65;;;;;;;12.18;36.68;99795.25;4997447;28;20340;-63
2023/02/02 11:03:21;;;;;;;3.67;1.60;;;;;;;12.18;36.47;99797.91;4996042;28;20062;-61
2023/02/02 11:08:38;;;;;;;13.20;6.70;;;;;;;12.33;36.63;99774.94;4996832;28;20049;-62
2023/02/02 11:11:23;;;;;;;3.83;2.30;;;;;;;12.28;36.78;99779.94;4996726;28;20072;-63
2023/02/02 11:14:01;;;;;;;1.55;1.45;;;;;;;12.13;37.18;99777.19;4995539;28;20137;-63
2023/02/02 11:16:31;;;;;;;3.72;1.70;;;;;;;12.14;36.95;99766.38;4996270;28;20045;-62
2023/02/02 11:18:57;;;;;;;2.20;1.58;;;;;;;12.27;36.66;99773.81;4996739;28;20043;-62
2023/02/02 11:21:32;;;;;;;1.77;1.58;;;;;;;12.34;35.77;99761.50;4997003;28;20081;-62
2023/02/02 11:24:05;;;;;;;3.30;1.75;;;;;;;12.42;36.24;99750.00;4997276;28;20174;-62
2023/02/02 11:26:45;;;;;;;1.80;1.65;;;;;;;12.44;35.42;99755.97;4999218;28;20053;-63
2023/02/02 11:29:20;;;;;;;2.83;1.80;;;;;;;12.41;36.12;99745.69;4999958;28;20121;-62
2023/02/02 11:31:46;;;;;;;2.65;1.75;;;;;;;12.39;35.58;99734.41;5000470;28;20097;-62
2023/02/02 11:34:21;;;;;;;2.03;1.48;;;;;;;12.44;36.09;99732.91;5000687;28;20042;-61
2023/02/02 11:37:20;;;;;;;2.63;1.92;;;;;;;12.43;35.56;99733.91;5000317;28;20046;-62
2023/02/02 11:39:45;;;;;;;4.15;3.58;;;;;;;12.38;35.02;99717.66;4995108;28;20103;-63
2023/02/02 11:42:23;;;;;;;2.72;2.05;;;;;;;12.54;35.55;99715.94;5000038;28;20058;-62
2023/02/02 11:44:51;;;;;;;3.95;2.22;;;;;;;12.60;35.14;99718.72;4999955;28;20447;-62
2023/02/02 11:47:32;;;;;;;2.85;1.92;;;;;;;12.73;34.90;99707.53;5000088;28;20030;-62
2023/02/02 11:50:00;;;;;;;3.00;1.83;;;;;;;12.77;34.20;99703.50;5000126;28;20037;-62
2023/02/02 11:52:28;;;;;;;2.55;1.60;;;;;;;12.64;33.38;99701.44;4999514;28;20296;-62
2023/02/02 11:54:56;;;;;;;3.28;1.70;;;;;;;12.58;33.05;99691.50;4998860;28;20046;-62
2023/02/02 11:57:25;;;;;;;3.13;1.70;;;;;;;12.61;33.72;99696.47;5000296;28;20088;-62